Time;durP1;ratioP1;P1;durP2;ratioP2;P2;SDS_P1;SDS_P2;PMS_P1;PMS_P2;Temp;Humidity;BMP_temperature;BMP_pressure;BME280_temperature;BME280_humidity;BME280_pressure;Samples;Min_cycle;Max_cycle;Signal;HPM_P1;HPM_P2
2022/04/04 00:00:51;;;;;;;39.85;30.15;;;;;;;-0.86;100.00;99093.91;2066644;28;20655;-73
2022/04/04 00:01:53;;;;;;;39.00;29.30;;;;;;;-0.86;100.00;99100.97;2066006;28;20192;-73
2022/04/04 00:02:54;;;;;;;34.85;29.65;;;;;;;-0.88;100.00;99089.91;2057951;28;20304;-72
2022/04/04 00:03:57;;;;;;;32.10;28.73;;;;;;;-0.88;100.00;99090.69;2066236;28;20196;-73
2022/04/04 00:04:58;;;;;;;33.47;29.33;;;;;;;-0.89;100.00;99083.06;2066684;28;20196;-72
2022/04/04 00:06:00;;;;;;;33.40;29.93;;;;;;;-0.90;100.00;99081.47;2066250;28;20690;-72
2022/04/04 00:07:02;;;;;;;35.53;29.15;;;;;;;-0.89;100.00;99094.34;2066909;28;20173;-73
2022/04/04 00:08:07;;;;;;;31.90;28.52;;;;;;;-0.88;100.00;99089.91;2074060;28;20283;-73
2022/04/04 00:09:08;;;;;;;31.13;27.77;;;;;;;-0.88;100.00;99092.53;2073737;28;20192;-72
2022/04/04 00:10:11;;;;;;;30.60;27.50;;;;;;;-0.81;100.00;99089.81;2065983;28;20224;-73
2022/04/04 00:11:12;;;;;;;31.00;27.42;;;;;;;-0.82;100.00;99094.25;2058081;28;20718;-73
2022/04/04 00:12:14;;;;;;;32.53;28.02;;;;;;;-0.85;100.00;99089.47;2066057;28;20667;-73
2022/04/04 00:13:16;;;;;;;30.02;26.77;;;;;;;-0.87;100.00;99086.25;2066640;28;20200;-72
2022/04/04 00:14:18;;;;;;;30.20;27.10;;;;;;;-0.87;100.00;99091.50;2074002;28;20611;-73
2022/04/04 00:15:23;;;;;;;32.45;28.98;;;;;;;-0.86;100.00;99088.69;2073886;28;20189;-72
2022/04/04 00:16:25;;;;;;;32.53;28.92;;;;;;;-0.83;100.00;99090.06;2066645;28;20181;-73
2022/04/04 00:17:27;;;;;;;31.37;27.97;;;;;;;-0.81;100.00;99087.19;2065305;28;20205;-72
2022/04/04 00:18:27;;;;;;;30.75;27.52;;;;;;;-0.85;100.00;99099.97;2066017;28;20189;-73
2022/04/04 00:19:29;;;;;;;33.30;27.83;;;;;;;-0.87;100.00;99092.31;2066526;28;20221;-73
2022/04/04 00:20:30;;;;;;;29.98;26.83;;;;;;;-0.88;100.00;99084.66;2066621;28;20651;-72
2022/04/04 00:21:32;;;;;;;31.43;27.63;;;;;;;-0.90;100.00;99087.50;2065467;28;20597;-72
2022/04/04 00:22:35;;;;;;;36.72;28.13;;;;;;;-0.89;100.00;99081.25;2057085;28;20233;-72
2022/04/04 00:23:36;;;;;;;33.08;28.02;;;;;;;-0.88;100.00;99082.84;2057592;28;20201;-72
2022/04/04 00:24:39;;;;;;;33.50;29.08;;;;;;;-0.90;100.00;99086.72;2057578;28;20691;-73
2022/04/04 00:25:41;;;;;;;32.92;27.08;;;;;;;-0.85;100.00;99081.63;2066166;28;20193;-73
2022/04/04 00:26:43;;;;;;;30.27;27.05;;;;;;;-0.84;100.00;99079.81;2066600;28;20188;-72
2022/04/04 00:27:44;;;;;;;33.97;28.02;;;;;;;-0.71;100.00;99085.66;2066507;28;20733;-73
2022/04/04 00:28:49;;;;;;;31.98;28.58;;;;;;;-0.74;100.00;99086.09;2065857;28;20193;-72
2022/04/04 00:29:51;;;;;;;34.10;27.90;;;;;;;-0.72;100.00;99089.28;2065908;28;20625;-73
2022/04/04 00:30:55;;;;;;;33.08;29.00;;;;;;;-0.74;100.00;99085.31;2066667;28;20244;-73
2022/04/04 00:31:57;;;;;;;33.55;29.23;;;;;;;-0.78;100.00;99084.13;2065839;28;20233;-72
2022/04/04 00:32:57;;;;;;;33.97;29.23;;;;;;;-0.80;100.00;99091.41;2066098;28;20675;-73
2022/04/04 00:33:59;;;;;;;34.03;29.10;;;;;;;-0.86;100.00;99080.03;2066455;28;20604;-72
2022/04/04 00:35:00;;;;;;;31.52;28.13;;;;;;;-0.87;100.00;99075.78;2065760;28;20205;-72
2022/04/04 00:36:03;;;;;;;30.13;27.07;;;;;;;-0.88;100.00;99080.22;2065312;28;20224;-72
2022/04/04 00:37:07;;;;;;;33.75;28.05;;;;;;;-0.88;100.00;99082.03;2066685;28;20223;-73
2022/04/04 00:38:11;;;;;;;34.40;29.03;;;;;;;-0.88;100.00;99095.13;2066415;28;20189;-73
2022/04/04 00:39:16;;;;;;;32.35;28.17;;;;;;;-0.90;100.00;99077.03;2066581;28;20204;-73
2022/04/04 00:40:17;;;;;;;30.75;27.63;;;;;;;-0.88;100.00;99084.66;2066410;28;20197;-73
2022/04/04 00:41:19;;;;;;;36.38;28.38;;;;;;;-0.93;100.00;99068.84;2065714;28;20651;-73
2022/04/04 00:42:23;;;;;;;33.72;28.10;;;;;;;-0.90;100.00;99076.22;2057714;28;20256;-72
2022/04/04 00:43:27;;;;;;;32.00;28.60;;;;;;;-0.92;100.00;99073.03;2058067;28;20237;-73
2022/04/04 00:44:27;;;;;;;31.40;28.00;;;;;;;-0.91;100.00;99069.41;2057509;28;20245;-73
2022/04/04 00:45:31;;;;;;;34.67;29.57;;;;;;;-0.91;100.00;99079.88;2057883;28;20248;-73
2022/04/04 00:46:36;;;;;;;35.40;29.48;;;;;;;-0.82;100.00;99075.13;2066129;28;20237;-72
2022/04/04 00:47:38;;;;;;;34.55;29.60;;;;;;;-0.86;100.00;99075.59;2073693;28;20189;-74
2022/04/04 00:48:38;;;;;;;32.42;28.98;;;;;;;-0.88;100.00;99079.41;2065726;28;20224;-73
2022/04/04 00:49:41;;;;;;;31.40;28.10;;;;;;;-0.85;100.00;99076.38;2065939;28;20217;-73
2022/04/04 00:50:43;;;;;;;33.47;28.90;;;;;;;-0.88;100.00;99082.84;2073767;28;20225;-73
2022/04/04 00:51:45;;;;;;;31.55;28.30;;;;;;;-0.88;100.00;99082.84;2073411;28;20752;-73
2022/04/04 00:52:46;;;;;;;31.67;28.15;;;;;;;-0.90;100.00;99076.22;2066323;28;20652;-74
2022/04/04 00:53:47;;;;;;;32.40;28.33;;;;;;;-0.89;100.00;99083.06;2066337;28;20525;-73
2022/04/04 00:54:48;;;;;;;31.27;27.92;;;;;;;-0.88;100.00;99082.84;2065578;28;20201;-72
2022/04/04 00:55:50;;;;;;;32.83;28.13;;;;;;;-0.90;100.00;99082.28;2065601;28;20216;-72
2022/04/04 00:56:53;;;;;;;35.47;28.52;;;;;;;-0.91;100.00;99075.44;2065601;28;20276;-73
2022/04/04 00:57:56;;;;;;;30.80;27.52;;;;;;;-0.90;100.00;99078.84;2066253;28;20254;-73
2022/04/04 00:58:58;;;;;;;31.52;27.40;;;;;;;-0.90;100.00;99071.78;2066266;28;20189;-72
2022/04/04 01:00:00;;;;;;;31.80;28.00;;;;;;;-0.93;100.00;99068.84;2066426;28;20189;-72
2022/04/04 01:01:01;;;;;;;39.50;29.52;;;;;;;-0.99;100.00;99073.13;2064962;28;20208;-72
2022/04/04 01:02:05;;;;;;;31.33;28.03;;;;;;;-0.96;100.00;99064.00;2065880;28;20308;-74
2022/04/04 01:03:06;;;;;;;34.15;28.77;;;;;;;-0.96;100.00;99064.81;2065458;28;20212;-73
2022/04/04 01:04:09;;;;;;;33.92;29.88;;;;;;;-0.97;100.00;99068.44;2065736;28;20299;-73
2022/04/04 01:05:12;;;;;;;32.85;28.65;;;;;;;-0.97;100.00;99070.28;2066426;28;20192;-72
2022/04/04 01:06:17;;;;;;;34.83;29.70;;;;;;;-0.99;100.00;99057.41;2065969;28;20228;-73
2022/04/04 01:07:18;;;;;;;31.50;28.17;;;;;;;-0.97;100.00;99059.81;2065421;28;20224;-72
2022/04/04 01:08:20;;;;;;;34.73;28.77;;;;;;;-0.94;100.00;99059.38;2065671;28;20719;-73
2022/04/04 01:09:20;;;;;;;32.42;28.17;;;;;;;-0.96;100.00;99066.63;2066226;28;20189;-73
2022/04/04 01:10:25;;;;;;;34.80;27.92;;;;;;;-1.00;100.00;99060.25;2066157;28;20248;-73
2022/04/04 01:11:26;;;;;;;33.58;28.35;;;;;;;-0.97;100.00;99065.84;2066270;28;20197;-73
2022/04/04 01:12:29;;;;;;;32.47;27.67;;;;;;;-0.99;100.00;99077.56;2066342;28;20639;-73
2022/04/04 01:13:30;;;;;;;30.45;27.13;;;;;;;-0.98;100.00;99068.69;2066214;28;20231;-73
2022/04/04 01:14:32;;;;;;;34.03;28.30;;;;;;;-0.88;100.00;99071.56;2064633;28;20663;-72
2022/04/04 01:15:33;;;;;;;30.30;27.20;;;;;;;-0.88;100.00;99072.38;2065575;28;20248;-73
2022/04/04 01:16:35;;;;;;;32.63;26.92;;;;;;;-0.95;100.00;99078.72;2066195;28;20591;-72
2022/04/04 01:17:37;;;;;;;35.63;27.85;;;;;;;-0.92;100.00;99076.47;2066093;28;20193;-72
2022/04/04 01:18:40;;;;;;;31.60;26.50;;;;;;;-0.91;100.00;99070.19;2065065;28;20243;-73
2022/04/04 01:19:42;;;;;;;30.00;26.77;;;;;;;-0.96;100.00;99072.66;2057219;28;20202;-73
2022/04/04 01:20:45;;;;;;;32.88;28.30;;;;;;;-0.97;100.00;99068.44;2065550;28;20741;-73
2022/04/04 01:21:47;;;;;;;33.70;27.58;;;;;;;-0.98;100.00;99068.69;2064917;28;20291;-72
2022/04/04 01:22:49;;;;;;;34.20;27.85;;;;;;;-0.95;100.00;99063.03;2065375;28;20687;-73
2022/04/04 01:23:55;;;;;;;30.85;27.55;;;;;;;-0.94;100.00;99059.38;2065219;28;20236;-73
2022/04/04 01:24:59;;;;;;;33.33;27.85;;;;;;;-0.98;100.00;99058.22;2065806;28;20173;-73
2022/04/04 01:26:02;;;;;;;37.38;29.00;;;;;;;-0.99;100.00;99060.03;2066100;28;20582;-72
2022/04/04 01:27:04;;;;;;;31.77;28.17;;;;;;;-1.01;100.00;99063.91;2065408;28;20560;-72
2022/04/04 01:28:06;;;;;;;34.72;27.58;;;;;;;-1.05;100.00;99065.34;2057072;28;20201;-72
2022/04/04 01:29:07;;;;;;;31.77;28.08;;;;;;;-1.01;100.00;99061.28;2065493;28;20196;-73
2022/04/04 01:30:12;;;;;;;31.47;27.87;;;;;;;-1.01;100.00;99056.03;2065383;28;20677;-72
2022/04/04 01:31:12;;;;;;;30.50;27.40;;;;;;;-1.01;100.00;99059.44;2057729;28;20194;-73
2022/04/04 01:32:16;;;;;;;30.17;26.92;;;;;;;-1.01;100.00;99056.84;2065323;28;20753;-73
2022/04/04 01:33:18;;;;;;;30.08;27.00;;;;;;;-1.00;100.00;99063.66;2065464;28;20185;-73
2022/04/04 01:34:22;;;;;;;31.45;27.27;;;;;;;-0.99;100.00;99060.03;2064953;28;20233;-73
2022/04/04 01:35:23;;;;;;;30.73;26.88;;;;;;;-0.97;100.00;99065.84;2065436;28;20193;-73
2022/04/04 01:36:24;;;;;;;29.80;26.80;;;;;;;-0.99;100.00;99052.16;2065398;28;20227;-72
2022/04/04 01:37:25;;;;;;;30.77;26.58;;;;;;;-0.97;100.00;99054.56;2073445;28;20222;-72
2022/04/04 01:38:27;;;;;;;29.47;26.10;;;;;;;-0.99;100.00;99052.16;2073528;28;20375;-73
2022/04/04 01:39:29;;;;;;;34.45;27.20;;;;;;;-0.97;100.00;99055.38;2065973;28;20200;-73
2022/04/04 01:40:32;;;;;;;29.52;26.33;;;;;;;-0.99;100.00;99052.16;2066075;28;20197;-73
2022/04/04 01:41:34;;;;;;;33.13;26.67;;;;;;;-0.95;100.00;99058.59;2065309;28;20200;-73
2022/04/04 01:42:37;;;;;;;30.38;26.98;;;;;;;-0.97;100.00;99054.56;2065269;28;20197;-73
2022/04/04 01:43:38;;;;;;;32.28;26.98;;;;;;;-0.98;100.00;99050.34;2066001;28;20193;-73
2022/04/04 01:44:39;;;;;;;28.87;25.77;;;;;;;-1.02;100.00;99050.00;2065943;28;20655;-73
2022/04/04 01:47:01;;;;;;;29.77;26.63;;;;;;;-0.99;100.00;99052.16;2065291;28;20204;-73
2022/04/04 01:48:03;;;;;;;28.83;25.92;;;;;;;-0.98;100.00;99053.75;2056958;28;20680;-73
2022/04/04 01:49:06;;;;;;;30.00;26.80;;;;;;;-0.96;100.00;99050.91;2065446;28;20762;-71
2022/04/04 01:50:08;;;;;;;30.05;26.95;;;;;;;-0.98;100.00;99042.50;2065174;28;20287;-72
2022/04/04 01:51:10;;;;;;;29.73;25.58;;;;;;;-0.95;100.00;99037.63;2064801;28;20188;-72
2022/04/04 01:52:11;;;;;;;28.45;25.45;;;;;;;-0.94;100.00;99048.91;2073582;28;20524;-72
2022/04/04 01:53:27;;;;;;;30.17;26.92;;;;;;;-0.97;100.00;99041.47;2065896;28;20239;-72
2022/04/04 01:54:32;;;;;;;30.58;27.27;;;;;;;-1.00;100.00;99041.94;2064767;28;20211;-72
2022/04/04 01:55:42;;;;;;;33.55;27.90;;;;;;;-1.03;100.00;99037.13;2058521;28;20564;-72
2022/04/04 01:56:43;;;;;;;29.40;26.17;;;;;;;-1.03;100.00;99034.53;2065336;28;20648;-72
2022/04/04 01:57:44;;;;;;;28.50;25.50;;;;;;;-1.02;100.00;99041.34;2065145;28;20208;-72
2022/04/04 01:58:46;;;;;;;30.10;26.80;;;;;;;-1.05;100.00;99037.34;2065330;28;20247;-72
2022/04/04 01:59:47;;;;;;;29.77;25.80;;;;;;;-1.06;100.00;99034.94;2066008;28;20199;-72
2022/04/04 02:00:50;;;;;;;33.00;26.10;;;;;;;-1.05;100.00;99031.31;2065192;28;20291;-72
2022/04/04 02:01:55;;;;;;;34.50;26.15;;;;;;;-1.06;100.00;99032.31;2065294;28;20443;-73
2022/04/04 02:02:56;;;;;;;29.05;26.02;;;;;;;-1.07;100.00;99035.97;2065085;28;20768;-72
2022/04/04 02:03:58;;;;;;;28.10;25.40;;;;;;;-1.07;100.00;99036.75;2065382;28;20596;-72
2022/04/04 02:04:59;;;;;;;29.35;26.33;;;;;;;-1.07;100.00;99028.91;2065872;28;20671;-73
2022/04/04 02:06:00;;;;;;;30.67;25.88;;;;;;;-1.06;100.00;99032.31;2064165;28;20209;-72
2022/04/04 02:07:06;;;;;;;28.73;25.60;;;;;;;-1.02;100.00;99041.34;2056917;28;20226;-72
2022/04/04 02:08:08;;;;;;;28.05;25.17;;;;;;;-1.01;100.00;99030.66;2065004;28;20173;-72
2022/04/04 02:09:12;;;;;;;28.52;25.45;;;;;;;-1.02;100.00;99030.88;2064577;28;20690;-72
2022/04/04 02:10:13;;;;;;;28.67;25.60;;;;;;;-1.03;100.00;99035.31;2057016;28;20209;-72
2022/04/04 02:11:17;;;;;;;29.42;26.38;;;;;;;-0.99;100.00;99036.47;2065162;28;20193;-73
2022/04/04 02:12:19;;;;;;;28.30;25.40;;;;;;;-0.92;100.00;99036.38;2065487;28;20671;-72
2022/04/04 02:13:20;;;;;;;28.70;25.77;;;;;;;-0.90;100.00;99040.38;2073356;28;20188;-72
2022/04/04 02:14:24;;;;;;;27.47;24.67;;;;;;;-0.95;100.00;99034.22;2065814;28;20272;-72
2022/04/04 02:15:25;;;;;;;27.67;24.98;;;;;;;-0.98;100.00;99034.63;2065802;28;20482;-72
2022/04/04 02:16:28;;;;;;;31.13;25.85;;;;;;;-0.96;100.00;99035.22;2065158;28;20710;-72
2022/04/04 02:17:28;;;;;;;28.40;25.40;;;;;;;-0.98;100.00;99037.25;2065347;28;20189;-72
2022/04/04 02:18:31;;;;;;;28.67;25.23;;;;;;;-0.96;100.00;99037.81;2065815;28;20185;-72
2022/04/04 02:19:32;;;;;;;27.67;24.88;;;;;;;-0.98;100.00;99045.13;2065847;28;20200;-73
2022/04/04 02:20:36;;;;;;;28.23;25.33;;;;;;;-0.92;100.00;99041.63;2064683;28;20213;-72
2022/04/04 02:21:37;;;;;;;28.73;25.73;;;;;;;-0.96;100.00;99037.81;2057293;28;20221;-73
2022/04/04 02:22:39;;;;;;;27.77;25.00;;;;;;;-0.92;100.00;99033.75;2065324;28;20188;-72
2022/04/04 02:23:40;;;;;;;29.17;26.10;;;;;;;-0.94;100.00;99031.38;2064951;28;20210;-72
2022/04/04 02:24:41;;;;;;;27.57;24.80;;;;;;;-0.98;100.00;99029.41;2065374;28;20655;-72
2022/04/04 02:25:42;;;;;;;27.98;25.05;;;;;;;-0.94;100.00;99022.72;2066017;28;20197;-72
2022/04/04 02:26:48;;;;;;;28.42;25.52;;;;;;;-0.95;100.00;99034.22;2065780;28;20196;-73
2022/04/04 02:27:50;;;;;;;27.02;24.52;;;;;;;-0.97;100.00;99028.38;2065799;28;20231;-73
2022/04/04 02:28:55;;;;;;;27.23;24.17;;;;;;;-1.02;100.00;99025.66;2065051;28;20201;-72
2022/04/04 02:29:57;;;;;;;29.80;25.08;;;;;;;-1.02;100.00;99009.94;2065333;28;20193;-73
2022/04/04 02:30:59;;;;;;;29.27;24.80;;;;;;;-1.00;100.00;99020.97;2065940;28;20193;-72
2022/04/04 02:31:59;;;;;;;28.30;25.40;;;;;;;-0.99;100.00;99014.72;2073205;28;20578;-73
2022/04/04 02:33:01;;;;;;;29.00;25.90;;;;;;;-0.97;100.00;99017.91;2073424;28;20188;-72
2022/04/04 02:34:04;;;;;;;28.67;25.70;;;;;;;-1.00;100.00;99015.75;2065754;28;20284;-72
2022/04/04 02:35:09;;;;;;;28.40;24.75;;;;;;;-1.06;100.00;99014.78;2066011;28;20616;-73
2022/04/04 02:36:11;;;;;;;27.67;25.05;;;;;;;-1.09;100.00;99014.44;2065144;28;20188;-73
2022/04/04 02:37:13;;;;;;;28.33;25.63;;;;;;;-1.10;100.00;99015.47;2065859;28;20240;-73
2022/04/04 02:38:15;;;;;;;28.60;25.65;;;;;;;-1.13;100.00;99006.22;2065749;28;20190;-72
2022/04/04 02:39:16;;;;;;;27.35;24.60;;;;;;;-1.15;100.00;99006.44;2065060;28;20205;-74
2022/04/04 02:40:17;;;;;;;27.90;25.20;;;;;;;-1.16;100.00;99004.06;2057043;28;20228;-73
2022/04/04 02:41:20;;;;;;;28.85;25.73;;;;;;;-1.17;100.00;99013.72;2056958;28;20283;-73
2022/04/04 02:42:24;;;;;;;30.15;26.98;;;;;;;-1.19;100.00;99015.78;2065177;28;20193;-73
2022/04/04 02:43:25;;;;;;;28.50;25.65;;;;;;;-1.22;100.00;99020.63;2065751;28;20565;-73
2022/04/04 02:44:27;;;;;;;30.77;26.02;;;;;;;-1.23;100.00;99009.38;2065719;28;20217;-72
2022/04/04 02:45:29;;;;;;;29.38;26.27;;;;;;;-1.23;100.00;99017.22;2065039;28;20233;-73
2022/04/04 02:46:31;;;;;;;29.15;26.05;;;;;;;-1.24;100.00;99015.63;2065099;28;20190;-73
2022/04/04 02:47:33;;;;;;;27.08;24.30;;;;;;;-1.25;100.00;99014.03;2065741;28;20276;-73
2022/04/04 02:48:36;;;;;;;28.17;25.27;;;;;;;-1.27;100.00;99015.28;2065100;28;20291;-72
2022/04/04 02:49:39;;;;;;;28.10;25.10;;;;;;;-1.28;100.00;99016.31;2065173;28;20189;-73
2022/04/04 02:50:41;;;;;;;29.23;26.25;;;;;;;-1.30;100.00;99013.91;2064562;28;20205;-73
2022/04/04 02:51:43;;;;;;;28.83;25.48;;;;;;;-1.30;100.00;99010.50;2056686;28;20229;-73
2022/04/04 02:52:44;;;;;;;29.23;26.13;;;;;;;-1.31;100.00;99012.28;2057075;28;20197;-73
2022/04/04 02:53:46;;;;;;;27.90;25.23;;;;;;;-1.33;100.00;99006.47;2056973;28;20337;-73
2022/04/04 02:54:47;;;;;;;28.45;25.55;;;;;;;-1.34;100.00;98996.25;2065306;28;20436;-72
2022/04/04 02:57:12;;;;;;;29.70;25.27;;;;;;;-1.34;100.00;99006.72;2065447;28;20178;-73
2022/04/04 02:58:14;;;;;;;28.45;25.42;;;;;;;-1.34;100.00;99012.75;2065675;28;20197;-73
2022/04/04 02:59:16;;;;;;;28.40;25.25;;;;;;;-1.36;100.00;99009.53;2065668;28;20331;-73
2022/04/04 03:00:19;;;;;;;31.08;27.23;;;;;;;-1.35;100.00;99005.91;2065661;28;20197;-72
2022/04/04 03:01:22;;;;;;;30.92;27.73;;;;;;;-1.35;100.00;99016.38;2065793;28;20553;-73
2022/04/04 03:02:26;;;;;;;34.13;26.88;;;;;;;-1.36;100.00;99006.13;2073075;28;20196;-73
2022/04/04 03:03:28;;;;;;;31.05;26.65;;;;;;;-1.36;100.00;99004.31;2064874;28;20303;-73
2022/04/04 03:04:32;;;;;;;30.80;27.90;;;;;;;-1.36;100.00;99006.13;2065179;28;20200;-73
2022/04/04 03:05:35;;;;;;;29.75;26.75;;;;;;;-1.37;100.00;99007.16;2065877;28;20189;-72
2022/04/04 03:06:37;;;;;;;28.02;25.35;;;;;;;-1.36;100.00;99006.94;2065268;28;20626;-72
2022/04/04 03:07:37;;;;;;;27.73;24.75;;;;;;;-1.34;100.00;99006.72;2064856;28;20201;-73
2022/04/04 03:08:41;;;;;;;29.07;25.23;;;;;;;-1.37;100.00;99007.16;2065071;28;20195;-72
2022/04/04 03:09:42;;;;;;;28.50;25.60;;;;;;;-1.36;100.00;99000.91;2065617;28;20193;-72
2022/04/04 03:10:46;;;;;;;27.50;24.70;;;;;;;-1.37;100.00;99012.38;2065648;28;20552;-72
2022/04/04 03:11:48;;;;;;;28.65;25.63;;;;;;;-1.39;100.00;99010.00;2065823;28;20204;-72
2022/04/04 03:12:51;;;;;;;29.10;26.30;;;;;;;-1.37;100.00;99007.94;2065584;28;20197;-72
2022/04/04 03:13:54;;;;;;;28.50;25.55;;;;;;;-1.34;100.00;99011.94;2065703;28;20185;-72
2022/04/04 03:14:55;;;;;;;28.15;25.27;;;;;;;-1.38;100.00;99000.31;2064968;28;20205;-73
2022/04/04 03:15:56;;;;;;;28.13;24.98;;;;;;;-1.37;100.00;99005.34;2065074;28;20196;-72
2022/04/04 03:17:00;;;;;;;27.83;25.10;;;;;;;-1.38;100.00;99000.31;2065805;28;20252;-72
2022/04/04 03:18:04;;;;;;;28.20;24.55;;;;;;;-1.43;100.00;99004.38;2065635;28;20200;-72
2022/04/04 03:19:06;;;;;;;27.92;25.08;;;;;;;-1.42;100.00;99000.75;2064960;28;20189;-72
2022/04/04 03:20:09;;;;;;;28.27;25.50;;;;;;;-1.41;100.00;99006.78;2065492;28;20200;-71
2022/04/04 03:21:12;;;;;;;26.48;24.05;;;;;;;-1.33;100.00;99003.88;2066200;28;20568;-73
2022/04/04 03:22:12;;;;;;;27.13;24.48;;;;;;;-1.32;100.00;99002.03;2074556;28;20295;-72
2022/04/04 03:23:15;;;;;;;27.17;24.40;;;;;;;-1.33;100.00;99006.47;2066274;28;20197;-72
2022/04/04 03:24:18;;;;;;;26.58;23.83;;;;;;;-1.36;100.00;99004.31;2058027;28;20229;-72
2022/04/04 03:25:20;;;;;;;27.95;25.02;;;;;;;-1.37;100.00;99007.94;2066377;28;20211;-71
2022/04/04 03:26:23;;;;;;;26.80;24.30;;;;;;;-1.38;100.00;99003.75;2067220;28;20189;-72
2022/04/04 03:27:23;;;;;;;28.52;25.35;;;;;;;-1.39;100.00;99002.16;2067000;28;20200;-72
2022/04/04 03:28:25;;;;;;;27.60;24.97;;;;;;;-1.28;100.00;98998.78;2066285;28;20197;-72
2022/04/04 03:29:28;;;;;;;27.50;24.48;;;;;;;-1.24;100.00;99009.59;2058361;28;20208;-72
2022/04/04 03:30:33;;;;;;;27.17;24.50;;;;;;;-1.31;100.00;99001.81;2066597;28;20189;-72
2022/04/04 03:31:36;;;;;;;27.25;24.42;;;;;;;-1.33;100.00;99008.31;2065702;28;20208;-72
2022/04/04 03:32:37;;;;;;;26.40;24.00;;;;;;;-1.31;100.00;99006.25;2066374;28;20193;-72
2022/04/04 03:33:38;;;;;;;28.25;25.27;;;;;;;-1.34;100.00;99006.72;2074348;28;20235;-72
2022/04/04 03:34:39;;;;;;;27.35;24.55;;;;;;;-1.33;100.00;99009.09;2066273;28;20216;-73
2022/04/04 03:35:41;;;;;;;28.23;25.33;;;;;;;-1.34;100.00;99012.75;2066564;28;20871;-72
2022/04/04 03:36:44;;;;;;;26.05;23.75;;;;;;;-1.36;100.00;99013.97;2066576;28;20220;-72
2022/04/04 03:37:47;;;;;;;26.75;24.15;;;;;;;-1.38;100.00;99011.59;2066179;28;20208;-72
2022/04/04 03:38:50;;;;;;;25.38;23.08;;;;;;;-1.38;100.00;99006.34;2066356;28;20193;-72
2022/04/04 03:39:51;;;;;;;26.25;23.85;;;;;;;-1.38;100.00;99002.94;2066261;28;20193;-72
2022/04/04 03:40:53;;;;;;;26.60;24.13;;;;;;;-1.37;100.00;99012.38;2066357;28;20224;-72
2022/04/04 03:41:54;;;;;;;26.88;24.35;;;;;;;-1.32;100.00;99015.94;2066896;28;20200;-72
2022/04/04 03:42:57;;;;;;;27.52;24.92;;;;;;;-1.34;100.00;99011.94;2066913;28;20196;-73
2022/04/04 03:44:01;;;;;;;27.25;24.85;;;;;;;-1.34;100.00;99012.75;2066102;28;20224;-72
2022/04/04 03:45:08;;;;;;;27.35;24.75;;;;;;;-1.32;100.00;99020.38;2058760;28;20198;-73
2022/04/04 03:46:12;;;;;;;26.98;24.55;;;;;;;-1.37;100.00;99018.41;2058682;28;20230;-74
2022/04/04 03:47:14;;;;;;;27.50;25.00;;;;;;;-1.41;100.00;99012.00;2066511;28;20197;-73
2022/04/04 03:48:16;;;;;;;26.73;24.27;;;;;;;-1.44;100.00;99013.25;2066133;28;20229;-72
2022/04/04 03:49:16;;;;;;;27.13;24.60;;;;;;;-1.45;100.00;99008.25;2058128;28;20589;-72
2022/04/04 03:50:20;;;;;;;26.63;24.10;;;;;;;-1.42;100.00;99011.22;2066229;28;20189;-73
2022/04/04 03:51:22;;;;;;;27.88;25.27;;;;;;;-1.46;100.00;99004.03;2065702;28;20316;-73
2022/04/04 03:52:28;;;;;;;27.70;25.20;;;;;;;-1.41;100.00;99006.78;2066445;28;20213;-72
2022/04/04 03:53:30;;;;;;;26.50;24.15;;;;;;;-1.34;100.00;99012.75;2065989;28;20209;-72
2022/04/04 03:54:31;;;;;;;27.38;24.65;;;;;;;-1.36;100.00;99009.53;2058546;28;20292;-72
2022/04/04 03:55:39;;;;;;;27.47;24.83;;;;;;;-1.27;100.00;99012.66;2066290;28;20181;-73
2022/04/04 03:56:39;;;;;;;27.35;24.85;;;;;;;-1.26;100.00;99014.25;2067017;28;20188;-72
2022/04/04 03:57:42;;;;;;;26.90;24.50;;;;;;;-1.34;100.00;99028.44;2066867;28;20217;-73
2022/04/04 03:58:44;;;;;;;27.33;24.92;;;;;;;-1.41;100.00;99017.25;2065927;28;20197;-73
2022/04/04 03:59:51;;;;;;;28.40;25.63;;;;;;;-1.43;100.00;99011.44;2057854;28;20252;-72
2022/04/04 04:00:53;;;;;;;27.83;25.52;;;;;;;-1.45;100.00;99013.47;2058359;28;20673;-73
2022/04/04 04:01:55;;;;;;;27.90;25.23;;;;;;;-1.48;100.00;99013.91;2066175;28;20200;-73
2022/04/04 04:02:56;;;;;;;25.95;23.75;;;;;;;-1.52;100.00;99008.31;2066035;28;20197;-74
2022/04/04 04:03:57;;;;;;;26.27;24.00;;;;;;;-1.53;100.00;99014.56;2066088;28;20263;-73
2022/04/04 04:04:58;;;;;;;26.90;24.38;;;;;;;-1.55;100.00;99003.53;2066031;28;20449;-73
2022/04/04 04:06:12;;;;;;;26.27;23.67;;;;;;;-1.57;100.00;99010.78;2057054;28;20297;-72
2022/04/04 04:07:16;;;;;;;25.88;23.23;;;;;;;-1.62;100.00;99002.00;2066262;28;20419;-73
2022/04/04 04:08:17;;;;;;;26.85;24.52;;;;;;;-1.59;100.00;99004.16;2066682;28;20594;-72
2022/04/04 04:09:18;;;;;;;26.23;23.45;;;;;;;-1.58;100.00;99011.78;2066890;28;20200;-73
2022/04/04 04:10:20;;;;;;;26.23;23.50;;;;;;;-1.57;100.00;99004.75;2065984;28;20193;-72
2022/04/04 04:11:21;;;;;;;26.75;24.25;;;;;;;-1.62;100.00;99002.00;2066095;28;20937;-72
2022/04/04 04:12:25;;;;;;;28.63;24.10;;;;;;;-1.67;100.00;99007.88;2066651;28;20620;-73
2022/04/04 04:13:27;;;;;;;25.88;23.00;;;;;;;-1.64;100.00;99001.44;2074072;28;20200;-73
2022/04/04 04:14:28;;;;;;;26.38;23.58;;;;;;;-1.59;100.00;99017.25;2065931;28;20787;-73
2022/04/04 04:15:30;;;;;;;26.63;24.08;;;;;;;-1.66;100.00;99006.84;2065995;28;20203;-72
2022/04/04 04:16:32;;;;;;;26.08;23.67;;;;;;;-1.71;100.00;99007.53;2065974;28;20205;-72
2022/04/04 04:17:34;;;;;;;26.88;24.33;;;;;;;-1.75;100.00;99003.72;2066291;28;20195;-72
2022/04/04 04:18:35;;;;;;;26.88;24.17;;;;;;;-1.79;100.00;99001.78;2066650;28;20193;-72
2022/04/04 04:20:56;;;;;;;27.00;24.48;;;;;;;-1.86;100.00;98994.00;2041186;29;20207;-73
2022/04/04 04:21:56;;;;;;;26.50;24.25;;;;;;;-1.87;100.00;98991.59;2061395;28;20768;-72
2022/04/04 04:23:00;;;;;;;27.13;24.63;;;;;;;-1.86;100.00;98991.38;2066147;28;20589;-73
2022/04/04 04:24:01;;;;;;;26.55;23.77;;;;;;;-1.87;100.00;98991.59;2066312;28;20228;-72
2022/04/04 04:25:05;;;;;;;26.10;23.73;;;;;;;-1.86;100.00;99001.03;2065873;28;20293;-72
2022/04/04 04:26:08;;;;;;;25.42;22.83;;;;;;;-1.87;100.00;98991.59;2066158;28;20617;-72
2022/04/04 04:27:10;;;;;;;24.58;22.35;;;;;;;-1.88;100.00;98996.03;2065831;28;20197;-73
2022/04/04 04:28:11;;;;;;;25.50;23.27;;;;;;;-1.90;100.00;98995.47;2066021;28;20244;-73
2022/04/04 04:29:13;;;;;;;26.07;23.50;;;;;;;-1.82;100.00;98999.59;2065845;28;20201;-73
2022/04/04 04:30:15;;;;;;;26.65;24.10;;;;;;;-1.85;100.00;98990.38;2057868;28;20230;-73
2022/04/04 04:31:18;;;;;;;26.58;24.27;;;;;;;-1.91;100.00;98991.25;2065660;28;20275;-73
2022/04/04 04:32:24;;;;;;;26.15;23.60;;;;;;;-1.92;100.00;98994.84;2065817;28;20213;-72
2022/04/04 04:33:29;;;;;;;26.67;23.90;;;;;;;-1.95;100.00;98994.50;2066158;28;20178;-73
2022/04/04 04:34:33;;;;;;;25.50;23.13;;;;;;;-1.93;100.00;98995.06;2066187;28;20193;-73
2022/04/04 04:35:38;;;;;;;26.13;23.73;;;;;;;-1.93;100.00;99006.31;2057814;28;20613;-73
2022/04/04 04:36:39;;;;;;;25.40;23.20;;;;;;;-1.94;100.00;98996.88;2065644;28;20241;-73
2022/04/04 04:37:41;;;;;;;25.33;23.03;;;;;;;-1.96;100.00;98998.94;2066480;28;20185;-73
2022/04/04 04:38:41;;;;;;;25.98;23.65;;;;;;;-1.96;100.00;98993.69;2066580;28;20197;-73
2022/04/04 04:39:44;;;;;;;25.10;22.90;;;;;;;-1.98;100.00;98998.34;2066401;28;20182;-73
2022/04/04 04:40:50;;;;;;;25.42;23.13;;;;;;;-1.99;100.00;98999.38;2065344;28;20718;-73
2022/04/04 04:41:51;;;;;;;25.75;23.30;;;;;;;-2.02;100.00;98997.16;2065857;28;20189;-72
2022/04/04 04:42:53;;;;;;;25.73;23.13;;;;;;;-1.99;100.00;99004.59;2065747;28;20196;-73
2022/04/04 04:43:54;;;;;;;25.98;23.42;;;;;;;-2.01;100.00;98996.16;2065727;28;20471;-73
2022/04/04 04:44:55;;;;;;;25.33;23.00;;;;;;;-2.02;100.00;98999.78;2066372;28;20193;-73
2022/04/04 04:45:57;;;;;;;26.65;23.92;;;;;;;-2.01;100.00;99006.59;2065655;28;20683;-73
2022/04/04 04:46:59;;;;;;;25.50;23.10;;;;;;;-1.99;100.00;99004.59;2065807;28;20197;-73
2022/04/04 04:48:04;;;;;;;25.10;22.70;;;;;;;-1.98;100.00;99000.97;2066375;28;20248;-73